createdAt,value
2019-03-02T00:01:49.565Z,99.9
2019-03-02T00:06:51.583Z,99.9
2019-03-02T00:11:56.432Z,99.9
2019-03-02T00:16:56.499Z,99.9
2019-03-02T00:21:59.995Z,99.9
2019-03-02T00:27:01.485Z,99.9
2019-03-02T00:32:05.773Z,99.9
2019-03-02T00:37:06.363Z,99.9
2019-03-02T00:42:08.831Z,99.9
2019-03-02T00:47:11.307Z,99.9
2019-03-02T00:52:13.756Z,99.9
2019-03-02T00:57:18.594Z,99.9
2019-03-02T01:02:18.694Z,99.9
2019-03-02T01:07:23.584Z,99.9
2019-03-02T01:12:23.626Z,99.9
2019-03-02T01:17:26.820Z,99.9
2019-03-02T01:22:28.529Z,99.9
2019-03-02T01:27:31.661Z,99.9
2019-03-02T01:32:33.450Z,99.9
2019-03-02T01:37:35.912Z,99.9
2019-03-02T01:42:38.391Z,99.9
2019-03-02T01:47:40.876Z,99.9
2019-03-02T01:52:43.344Z,99.9
2019-03-02T01:57:48.731Z,99.9
2019-03-02T02:02:48.266Z,99.9
2019-03-02T02:07:54.026Z,99.9
2019-03-02T02:12:53.170Z,99.9
2019-03-02T02:17:55.642Z,99.9
2019-03-02T02:22:58.094Z,99.9
2019-03-02T02:28:00.561Z,99.9
2019-03-02T02:33:05.421Z,99.9
2019-03-02T02:38:05.509Z,99.9
2019-03-02T02:43:07.953Z,99.9
2019-03-02T02:48:10.406Z,99.9
2019-03-02T02:53:12.886Z,99.9
2019-03-02T02:58:17.430Z,99.9
2019-03-02T03:03:20.671Z,99.9
2019-03-02T03:08:20.273Z,99.9
2019-03-02T03:13:22.722Z,99.9
2019-03-02T03:18:25.331Z,99.9
2019-03-02T03:23:27.714Z,99.9
2019-03-02T03:28:32.153Z,99.9
2019-03-02T03:33:41.253Z,99.9
2019-03-02T03:38:35.071Z,99.9
2019-03-02T03:43:42.391Z,99.9
2019-03-02T03:48:39.980Z,99.9
2019-03-02T03:53:42.440Z,99.9
2019-03-02T03:58:45.007Z,99.9
2019-03-02T04:03:51.604Z,99.9
2019-03-02T04:08:49.931Z,99.9
2019-03-02T04:13:52.312Z,99.9
2019-03-02T04:18:56.976Z,99.9
2019-03-02T04:24:01.102Z,99.9
2019-03-02T04:28:59.705Z,99.9
2019-03-02T04:34:02.209Z,99.9
2019-03-02T04:39:04.636Z,99.9
2019-03-02T04:44:07.093Z,99.9
2019-03-02T04:54:12.032Z,99.9
2019-03-02T04:59:14.495Z,99.9
2019-03-02T05:04:17.051Z,99.9
2019-03-02T05:09:19.426Z,99.9
2019-03-02T05:14:21.928Z,99.9
2019-03-02T05:19:29.917Z,99.9
2019-03-02T05:24:26.858Z,99.9
2019-03-02T05:29:29.297Z,99.9
2019-03-02T05:34:31.730Z,99.9
2019-03-02T05:39:34.202Z,99.9
2019-03-02T05:44:36.669Z,99.9
2019-03-02T05:49:39.200Z,99.9
2019-03-02T05:54:42.361Z,99.9
2019-03-02T05:59:44.070Z,99.9
2019-03-02T06:04:46.505Z,99.9
2019-03-02T06:09:50.099Z,99.9
2019-03-02T06:14:51.461Z,99.9
2019-03-02T06:19:55.710Z,99.9
2019-03-02T06:24:56.363Z,99.9
2019-03-02T06:29:58.842Z,99.9
2019-03-02T06:35:01.357Z,99.9
2019-03-02T06:40:03.857Z,99.9
2019-03-02T06:45:08.895Z,99.9
2019-03-02T06:50:08.723Z,99.9
2019-03-02T06:55:11.185Z,99.9
2019-03-02T07:00:13.911Z,99.9
2019-03-02T07:05:16.098Z,99.9
2019-03-02T07:10:21.540Z,99.9
2019-03-02T07:15:21.080Z,99.9
2019-03-02T07:20:23.776Z,99.9
2019-03-02T07:25:25.955Z,99.9
2019-03-02T07:30:28.437Z,99.9
2019-03-02T07:35:30.916Z,99.9
2019-03-02T07:40:33.402Z,99.9
2019-03-02T07:45:36.668Z,99.9
2019-03-02T07:50:38.301Z,99.9
2019-03-02T07:55:40.851Z,99.9
2019-03-02T08:00:43.227Z,99.9
2019-03-02T08:05:46.824Z,99.9
2019-03-02T08:10:48.144Z,99.9
2019-03-02T08:15:50.617Z,99.9
2019-03-02T08:20:53.816Z,99.9
2019-03-02T08:36:00.501Z,99.9
2019-03-02T08:41:02.951Z,99.9
2019-03-02T08:46:07.365Z,99.9
2019-03-02T08:51:07.869Z,99.9
2019-03-02T08:56:12.001Z,99.9
2019-03-02T09:01:15.288Z,99.9
2019-03-02T09:06:15.267Z,99.9
2019-03-02T09:11:17.723Z,99.9
2019-03-02T09:16:20.204Z,99.9
2019-03-02T09:21:22.643Z,99.9
2019-03-02T09:26:25.166Z,99.9
2019-03-02T09:31:27.631Z,99.9
2019-03-02T09:36:31.147Z,99.9
2019-03-02T09:41:32.604Z,99.9
2019-03-02T09:46:34.977Z,99.9
2019-03-02T09:51:37.431Z,99.9
2019-03-02T09:56:39.893Z,99.9
2019-03-02T10:01:42.337Z,99.9
2019-03-02T10:06:44.919Z,99.9
2019-03-02T10:11:47.304Z,99.9
2019-03-02T10:21:52.195Z,99.9
2019-03-02T10:26:54.644Z,99.9
2019-03-02T10:31:57.150Z,99.9
2019-03-02T10:36:59.566Z,99.9
2019-03-02T10:42:02.076Z,99.9
2019-03-02T10:47:04.475Z,99.9
2019-03-02T10:57:09.421Z,99.9
2019-03-02T11:02:11.850Z,99.9
2019-03-02T11:07:14.323Z,99.9
2019-03-02T11:12:17.474Z,99.9
2019-03-02T11:17:19.647Z,99.9
2019-03-02T11:22:21.740Z,99.9
2019-03-02T11:27:24.185Z,99.9
2019-03-02T11:32:26.621Z,99.9
2019-03-02T11:37:29.055Z,99.9
2019-03-02T11:42:31.582Z,99.9
2019-03-02T11:47:36.538Z,99.9
2019-03-02T11:52:38.533Z,99.9
2019-03-02T11:57:38.880Z,99.9
2019-03-02T12:02:41.344Z,99.9
2019-03-02T12:07:45.383Z,99.9
2019-03-02T12:12:46.352Z,99.9
2019-03-02T12:17:48.716Z,92.2
2019-03-02T12:22:51.187Z,47
2019-03-02T12:27:54.945Z,22.4
2019-03-02T12:32:56.078Z,1
2019-03-02T12:37:58.545Z,1
2019-03-02T12:43:04.008Z,1
2019-03-02T12:48:03.496Z,1
2019-03-02T12:53:05.915Z,1
2019-03-02T12:58:08.398Z,1
2019-03-02T13:03:10.827Z,1
2019-03-02T13:08:15.215Z,1
2019-03-02T13:13:16.861Z,1
2019-03-02T13:18:18.215Z,1
2019-03-02T13:23:20.756Z,1
2019-03-02T13:28:23.098Z,1
2019-03-02T13:33:25.561Z,1
2019-03-02T13:38:29.900Z,1
2019-03-02T13:43:30.518Z,3.7
2019-03-02T13:48:33.046Z,18.2
2019-03-02T13:53:35.433Z,12.2
2019-03-02T13:58:37.848Z,26.1
2019-03-02T14:03:40.334Z,18.2
2019-03-02T14:08:43.336Z,36
2019-03-02T14:13:45.234Z,43.4
2019-03-02T14:18:47.705Z,50.4
2019-03-02T14:23:50.142Z,78.6
2019-03-02T14:28:52.642Z,79.4
2019-03-02T14:33:55.061Z,78.7
2019-03-02T14:39:01.261Z,90.8
2019-03-02T14:44:00.007Z,88.8
2019-03-02T14:49:02.509Z,91.1
2019-03-02T14:54:04.946Z,92.4
2019-03-02T15:04:09.821Z,84.9
2019-03-02T15:09:12.509Z,92.7
2019-03-02T15:14:14.736Z,91.7
2019-03-02T15:19:17.173Z,92.4
2019-03-02T15:24:20.502Z,98.6
2019-03-02T15:29:22.086Z,97.5
2019-03-02T15:34:24.574Z,99.9
2019-03-02T15:39:27.033Z,99.9
2019-03-02T15:44:29.474Z,99.9
2019-03-02T15:49:31.989Z,99.9
2019-03-02T15:54:34.400Z,99.9
2019-03-02T15:59:37.266Z,99.9
2019-03-02T16:04:39.316Z,99.9
2019-03-02T16:09:41.873Z,99.9
2019-03-02T16:14:44.199Z,99.9
2019-03-02T16:19:46.708Z,99.9
2019-03-02T16:24:49.161Z,99.9
2019-03-02T16:29:52.633Z,99.9
2019-03-02T16:34:54.059Z,99.9
2019-03-02T16:39:56.503Z,99.9
2019-03-02T16:44:59.047Z,99.9
2019-03-02T16:50:06.409Z,99.9
2019-03-02T16:55:05.951Z,99.9
2019-03-02T17:00:08.786Z,99.9
2019-03-02T17:05:08.820Z,99.9
2019-03-02T17:10:11.306Z,99.9
2019-03-02T17:15:13.852Z,99.9
2019-03-02T17:20:16.206Z,99.9
2019-03-02T17:25:18.708Z,99.9
2019-03-02T17:30:21.295Z,99.9
2019-03-02T17:35:25.420Z,99.9
2019-03-02T17:40:25.990Z,99.9
2019-03-02T17:45:31.834Z,99.9
2019-03-02T17:50:30.913Z,99.9
2019-03-02T17:55:33.419Z,99.9
2019-03-02T18:00:35.935Z,99.9
2019-03-02T18:05:39.543Z,99.9
2019-03-02T18:10:40.795Z,99.9
2019-03-02T18:15:43.188Z,99.9
2019-03-02T18:20:45.785Z,99.9
2019-03-02T18:25:48.498Z,99.9
2019-03-02T18:30:50.556Z,99.9
2019-03-02T18:35:53.552Z,99.9
2019-03-02T18:40:55.480Z,99.9
2019-03-02T18:45:57.941Z,99.9
2019-03-02T18:51:03.716Z,99.9
2019-03-02T18:56:02.908Z,99.9
2019-03-02T19:01:05.294Z,99.9
2019-03-02T19:06:07.760Z,99.9
2019-03-02T19:11:10.223Z,99.9
2019-03-02T19:16:12.686Z,99.9
2019-03-02T19:21:15.128Z,99.9
2019-03-02T19:26:17.605Z,99.9
2019-03-02T19:31:21.261Z,99.9
2019-03-02T19:36:22.500Z,99.9
2019-03-02T19:41:24.966Z,99.9
2019-03-02T19:46:27.417Z,99.9
2019-03-02T19:51:29.926Z,99.9
2019-03-02T19:56:32.425Z,99.9
2019-03-02T20:01:34.838Z,99.9
2019-03-02T20:06:37.249Z,99.9
2019-03-02T20:11:39.719Z,99.9
2019-03-02T20:16:42.193Z,99.9
2019-03-02T20:21:44.612Z,99.9
2019-03-02T20:26:47.087Z,99.9
2019-03-02T20:31:49.536Z,99.9
2019-03-02T20:36:52.081Z,99.9
2019-03-02T20:41:54.620Z,99.9
2019-03-02T20:46:56.898Z,99.9
2019-03-02T20:51:59.366Z,99.9
2019-03-02T20:57:01.870Z,99.9
2019-03-02T21:02:04.294Z,99.9
2019-03-02T21:07:06.721Z,99.9
2019-03-02T21:12:09.250Z,99.9
2019-03-02T21:17:11.647Z,99.9
2019-03-02T21:22:14.129Z,99.9
2019-03-02T21:27:16.554Z,99.9
2019-03-02T21:32:19.039Z,99.9
2019-03-02T21:37:21.501Z,99.9
2019-03-02T21:42:23.930Z,99.9
2019-03-02T21:47:26.386Z,99.9
2019-03-02T21:52:28.870Z,99.9
2019-03-02T21:57:31.410Z,99.9
2019-03-02T22:02:33.770Z,99.9
2019-03-02T22:07:36.362Z,99.9
2019-03-02T22:12:38.751Z,99.9
2019-03-02T22:17:41.255Z,99.9
2019-03-02T22:22:43.594Z,99.9
2019-03-02T22:27:46.122Z,99.9
2019-03-02T22:32:48.500Z,99.9
2019-03-02T22:37:50.951Z,99.9
2019-03-02T22:42:53.456Z,99.9
2019-03-02T22:47:55.873Z,99.9
2019-03-02T22:52:58.325Z,99.9
2019-03-02T22:58:00.848Z,99.9
2019-03-02T23:03:03.248Z,99.9
2019-03-02T23:08:05.726Z,99.9
2019-03-02T23:13:08.167Z,99.9
2019-03-02T23:18:10.946Z,99.9
2019-03-02T23:23:13.070Z,99.9
2019-03-02T23:28:15.614Z,99.9
2019-03-02T23:33:17.992Z,99.9
2019-03-02T23:38:20.459Z,99.9
2019-03-02T23:43:22.910Z,99.9
2019-03-02T23:48:25.401Z,99.9
2019-03-02T23:53:27.841Z,99.9
2019-03-02T23:58:30.602Z,99.9
